sensor_id;sensor_type;location;lat;lon;timestamp;pressure;altitude;pressure_sealevel;temperature;humidity
69239;BME280;56349;51.816;-0.026;2023-10-09T00:00:38;101582.85;;;30.57;27.92
69239;BME280;56349;51.816;-0.026;2023-10-09T00:03:04;101584.64;;;30.56;27.91
69239;BME280;56349;51.816;-0.026;2023-10-09T00:05:30;101581.37;;;30.31;27.90
69239;BME280;56349;51.816;-0.026;2023-10-09T00:07:55;101579.36;;;30.32;27.88
69239;BME280;56349;51.816;-0.026;2023-10-09T00:10:21;101578.23;;;30.58;27.87
69239;BME280;56349;51.816;-0.026;2023-10-09T00:12:47;101576.91;;;30.29;27.88
69239;BME280;56349;51.816;-0.026;2023-10-09T00:15:12;101577.97;;;30.55;27.88
69239;BME280;56349;51.816;-0.026;2023-10-09T00:17:38;101578.56;;;30.04;27.90
69239;BME280;56349;51.816;-0.026;2023-10-09T00:20:04;101579.98;;;30.26;27.89
69239;BME280;56349;51.816;-0.026;2023-10-09T00:22:28;101585.70;;;30.24;27.91
69239;BME280;56349;51.816;-0.026;2023-10-09T00:24:55;101585.21;;;30.01;27.90
69239;BME280;56349;51.816;-0.026;2023-10-09T00:27:20;101579.99;;;30.23;27.90
69239;BME280;56349;51.816;-0.026;2023-10-09T00:29:45;101577.63;;;30.48;27.91
69239;BME280;56349;51.816;-0.026;2023-10-09T00:32:11;101578.61;;;30.46;27.92
69239;BME280;56349;51.816;-0.026;2023-10-09T00:34:36;101577.44;;;30.18;27.92
69239;BME280;56349;51.816;-0.026;2023-10-09T00:37:02;101576.82;;;30.15;27.93
69239;BME280;56349;51.816;-0.026;2023-10-09T00:39:27;101567.80;;;30.40;27.94
69239;BME280;56349;51.816;-0.026;2023-10-09T00:41:52;101565.35;;;30.11;27.96
69239;BME280;56349;51.816;-0.026;2023-10-09T00:44:18;101564.73;;;30.37;27.96
69239;BME280;56349;51.816;-0.026;2023-10-09T00:46:44;101564.55;;;30.34;27.98
69239;BME280;56349;51.816;-0.026;2023-10-09T00:49:09;101562.36;;;30.32;27.98
69239;BME280;56349;51.816;-0.026;2023-10-09T00:51:36;101566.31;;;30.32;27.98
69239;BME280;56349;51.816;-0.026;2023-10-09T00:54:01;101570.69;;;30.03;28.00
69239;BME280;56349;51.816;-0.026;2023-10-09T00:56:26;101568.23;;;30.28;28.00
69239;BME280;56349;51.816;-0.026;2023-10-09T00:58:52;101558.69;;;30.24;27.99
69239;BME280;56349;51.816;-0.026;2023-10-09T01:01:17;101553.43;;;30.12;28.03
69239;BME280;56349;51.816;-0.026;2023-10-09T01:03:43;101556.99;;;29.95;28.12
69239;BME280;56349;51.816;-0.026;2023-10-09T01:06:08;101552.89;;;29.76;28.24
69239;BME280;56349;51.816;-0.026;2023-10-09T01:08:34;101558.17;;;29.76;28.39
69239;BME280;56349;51.816;-0.026;2023-10-09T01:11:00;101562.75;;;29.29;28.57
69239;BME280;56349;51.816;-0.026;2023-10-09T01:13:26;101558.87;;;29.23;28.77
69239;BME280;56349;51.816;-0.026;2023-10-09T01:15:51;101560.44;;;29.21;29.00
69239;BME280;56349;51.816;-0.026;2023-10-09T01:18:17;101566.28;;;28.96;29.23
69239;BME280;56349;51.816;-0.026;2023-10-09T01:20:43;101562.94;;;28.72;29.44
69239;BME280;56349;51.816;-0.026;2023-10-09T01:23:10;101561.36;;;28.93;29.67
69239;BME280;56349;51.816;-0.026;2023-10-09T01:25:34;101552.63;;;28.47;29.88
69239;BME280;56349;51.816;-0.026;2023-10-09T01:27:59;101548.59;;;28.46;30.10
69239;BME280;56349;51.816;-0.026;2023-10-09T01:30:25;101541.22;;;28.25;30.33
69239;BME280;56349;51.816;-0.026;2023-10-09T01:32:50;101535.41;;;28.04;30.54
69239;BME280;56349;51.816;-0.026;2023-10-09T01:35:16;101531.86;;;28.34;30.74
69239;BME280;56349;51.816;-0.026;2023-10-09T01:37:41;101525.29;;;27.66;30.94
69239;BME280;56349;51.816;-0.026;2023-10-09T01:40:07;101521.26;;;27.96;31.18
69239;BME280;56349;51.816;-0.026;2023-10-09T01:42:33;101522.61;;;27.53;31.40
69239;BME280;56349;51.816;-0.026;2023-10-09T01:44:58;101520.37;;;27.60;31.58
69239;BME280;56349;51.816;-0.026;2023-10-09T01:47:24;101521.07;;;27.45;31.76
69239;BME280;56349;51.816;-0.026;2023-10-09T01:49:49;101526.11;;;27.29;31.94
69239;BME280;56349;51.816;-0.026;2023-10-09T01:52:16;101527.83;;;27.15;32.09
69239;BME280;56349;51.816;-0.026;2023-10-09T01:54:40;101520.19;;;26.99;32.28
69239;BME280;56349;51.816;-0.026;2023-10-09T01:57:07;101516.41;;;26.84;32.45
69239;BME280;56349;51.816;-0.026;2023-10-09T01:59:32;101515.47;;;26.66;32.65
69239;BME280;56349;51.816;-0.026;2023-10-09T02:01:57;101511.46;;;26.95;32.87
69239;BME280;56349;51.816;-0.026;2023-10-09T02:04:23;101517.10;;;26.56;33.08
69239;BME280;56349;51.816;-0.026;2023-10-09T02:06:48;101517.95;;;26.65;33.25
69239;BME280;56349;51.816;-0.026;2023-10-09T02:09:14;101517.09;;;26.53;33.42
69239;BME280;56349;51.816;-0.026;2023-10-09T02:11:40;101516.49;;;26.62;33.56
69239;BME280;56349;51.816;-0.026;2023-10-09T02:14:05;101510.75;;;26.06;33.73
69239;BME280;56349;51.816;-0.026;2023-10-09T02:16:31;101513.63;;;26.18;33.86
69239;BME280;56349;51.816;-0.026;2023-10-09T02:18:56;101511.85;;;26.08;34.00
69239;BME280;56349;51.816;-0.026;2023-10-09T02:21:22;101510.07;;;25.97;34.14
69239;BME280;56349;51.816;-0.026;2023-10-09T02:23:48;101511.93;;;25.91;34.23
69239;BME280;56349;51.816;-0.026;2023-10-09T02:26:14;101508.77;;;26.08;34.29
69239;BME280;56349;51.816;-0.026;2023-10-09T02:28:39;101505.17;;;26.01;34.42
69239;BME280;56349;51.816;-0.026;2023-10-09T02:31:10;101506.85;;;25.70;34.53
69239;BME280;56349;51.816;-0.026;2023-10-09T02:33:30;101502.58;;;25.84;34.64
69239;BME280;56349;51.816;-0.026;2023-10-09T02:35:55;101501.59;;;25.78;34.72
69239;BME280;56349;51.816;-0.026;2023-10-09T02:38:21;101501.38;;;25.70;34.84
69239;BME280;56349;51.816;-0.026;2023-10-09T02:40:47;101497.79;;;25.88;34.94
69239;BME280;56349;51.816;-0.026;2023-10-09T02:43:12;101496.17;;;25.80;35.06
69239;BME280;56349;51.816;-0.026;2023-10-09T02:45:38;101493.56;;;25.46;35.17
69239;BME280;56349;51.816;-0.026;2023-10-09T02:48:04;101493.20;;;25.65;35.27
69239;BME280;56349;51.816;-0.026;2023-10-09T02:50:28;101493.16;;;25.32;35.35
69239;BME280;56349;51.816;-0.026;2023-10-09T02:52:54;101491.15;;;25.53;35.43
69239;BME280;56349;51.816;-0.026;2023-10-09T02:55:20;101492.77;;;25.50;35.50
69239;BME280;56349;51.816;-0.026;2023-10-09T02:57:46;101492.75;;;25.44;35.58
69239;BME280;56349;51.816;-0.026;2023-10-09T03:00:12;101485.38;;;25.41;35.66
69239;BME280;56349;51.816;-0.026;2023-10-09T03:02:37;101485.26;;;25.36;35.73
69239;BME280;56349;51.816;-0.026;2023-10-09T03:05:03;101481.09;;;25.31;35.79
69239;BME280;56349;51.816;-0.026;2023-10-09T03:07:29;101479.57;;;25.26;35.87
69239;BME280;56349;51.816;-0.026;2023-10-09T03:09:54;101477.31;;;25.42;35.97
69239;BME280;56349;51.816;-0.026;2023-10-09T03:12:20;101474.17;;;25.14;36.05
69239;BME280;56349;51.816;-0.026;2023-10-09T03:14:46;101467.92;;;25.10;36.11
69239;BME280;56349;51.816;-0.026;2023-10-09T03:17:11;101465.33;;;25.06;36.16
69239;BME280;56349;51.816;-0.026;2023-10-09T03:19:37;101465.77;;;25.02;36.23
69239;BME280;56349;51.816;-0.026;2023-10-09T03:22:03;101457.97;;;24.96;36.32
69239;BME280;56349;51.816;-0.026;2023-10-09T03:24:29;101461.76;;;24.92;36.38
69239;BME280;56349;51.816;-0.026;2023-10-09T03:26:54;101471.19;;;24.88;36.45
69239;BME280;56349;51.816;-0.026;2023-10-09T03:29:20;101476.02;;;24.85;36.51
69239;BME280;56349;51.816;-0.026;2023-10-09T03:31:46;101475.14;;;25.29;36.57
69239;BME280;56349;51.816;-0.026;2023-10-09T03:34:11;101479.10;;;24.89;36.62
69239;BME280;56349;51.816;-0.026;2023-10-09T03:36:37;101483.90;;;24.96;36.65
69239;BME280;56349;51.816;-0.026;2023-10-09T03:39:03;101492.86;;;25.08;36.60
69239;BME280;56349;51.816;-0.026;2023-10-09T03:41:28;101485.17;;;25.48;36.49
69239;BME280;56349;51.816;-0.026;2023-10-09T03:43:54;101486.43;;;25.18;36.34
69239;BME280;56349;51.816;-0.026;2023-10-09T03:46:20;101483.34;;;25.66;36.15
69239;BME280;56349;51.816;-0.026;2023-10-09T03:48:46;101478.32;;;25.42;35.93
69239;BME280;56349;51.816;-0.026;2023-10-09T03:51:11;101476.21;;;25.65;35.66
69239;BME280;56349;51.816;-0.026;2023-10-09T03:53:37;101475.36;;;26.07;35.40
69239;BME280;56349;51.816;-0.026;2023-10-09T03:56:03;101473.64;;;25.98;35.17
69239;BME280;56349;51.816;-0.026;2023-10-09T03:58:33;101475.23;;;26.08;34.99
69239;BME280;56349;51.816;-0.026;2023-10-09T04:00:54;101477.53;;;26.13;34.86
69239;BME280;56349;51.816;-0.026;2023-10-09T04:03:20;101478.47;;;26.15;34.75
69239;BME280;56349;51.816;-0.026;2023-10-09T04:05:45;101477.09;;;26.37;34.69
69239;BME280;56349;51.816;-0.026;2023-10-09T04:08:12;101476.45;;;26.11;34.67
69239;BME280;56349;51.816;-0.026;2023-10-09T04:10:36;101477.08;;;26.03;34.70
69239;BME280;56349;51.816;-0.026;2023-10-09T04:13:02;101478.34;;;25.95;34.75
69239;BME280;56349;51.816;-0.026;2023-10-09T04:15:28;101485.02;;;25.86;34.80
69239;BME280;56349;51.816;-0.026;2023-10-09T04:17:53;101490.17;;;25.98;34.90
69239;BME280;56349;51.816;-0.026;2023-10-09T04:20:19;101491.88;;;25.67;34.97
69239;BME280;56349;51.816;-0.026;2023-10-09T04:22:45;101497.26;;;25.80;35.06
69239;BME280;56349;51.816;-0.026;2023-10-09T04:25:09;101498.70;;;25.47;35.16
69239;BME280;56349;51.816;-0.026;2023-10-09T04:27:35;101508.70;;;25.86;35.25
69239;BME280;56349;51.816;-0.026;2023-10-09T04:30:00;101508.52;;;25.52;35.31
69239;BME280;56349;51.816;-0.026;2023-10-09T04:32:26;101516.39;;;25.47;35.37
69239;BME280;56349;51.816;-0.026;2023-10-09T04:34:52;101522.14;;;25.68;35.42
69239;BME280;56349;51.816;-0.026;2023-10-09T04:37:17;101519.46;;;25.61;35.49
69239;BME280;56349;51.816;-0.026;2023-10-09T04:39:43;101511.66;;;25.50;35.59
69239;BME280;56349;51.816;-0.026;2023-10-09T04:42:08;101515.37;;;25.41;35.70
69239;BME280;56349;51.816;-0.026;2023-10-09T04:44:34;101516.46;;;25.07;35.79
69239;BME280;56349;51.816;-0.026;2023-10-09T04:46:59;101518.20;;;25.29;35.86
69239;BME280;56349;51.816;-0.026;2023-10-09T04:49:25;101503.87;;;25.22;35.92
69239;BME280;56349;51.816;-0.026;2023-10-09T04:51:50;101495.63;;;25.15;36.01
69239;BME280;56349;51.816;-0.026;2023-10-09T04:54:16;101492.54;;;25.10;36.07
69239;BME280;56349;51.816;-0.026;2023-10-09T04:56:41;101492.95;;;25.04;36.13
69239;BME280;56349;51.816;-0.026;2023-10-09T04:59:07;101494.86;;;24.97;36.21
69239;BME280;56349;51.816;-0.026;2023-10-09T05:01:32;101491.65;;;25.14;36.28
69239;BME280;56349;51.816;-0.026;2023-10-09T05:03:58;101497.41;;;25.08;36.34
69239;BME280;56349;51.816;-0.026;2023-10-09T05:06:23;101497.23;;;25.02;36.11
69239;BME280;56349;51.816;-0.026;2023-10-09T05:08:49;101507.46;;;24.98;36.06
69239;BME280;56349;51.816;-0.026;2023-10-09T05:11:15;101510.94;;;25.18;36.03
69239;BME280;56349;51.816;-0.026;2023-10-09T05:13:41;101511.87;;;25.14;36.11
69239;BME280;56349;51.816;-0.026;2023-10-09T05:16:07;101512.02;;;24.66;36.33
69239;BME280;56349;51.816;-0.026;2023-10-09T05:18:32;101508.48;;;25.06;36.44
69239;BME280;56349;51.816;-0.026;2023-10-09T05:20:57;101513.48;;;25.02;36.53
69239;BME280;56349;51.816;-0.026;2023-10-09T05:23:23;101506.40;;;24.77;36.65
69239;BME280;56349;51.816;-0.026;2023-10-09T05:25:48;101507.58;;;24.52;36.73
69239;BME280;56349;51.816;-0.026;2023-10-09T05:28:14;101513.55;;;24.50;36.80
69239;BME280;56349;51.816;-0.026;2023-10-09T05:30:40;101514.09;;;24.93;36.86
69239;BME280;56349;51.816;-0.026;2023-10-09T05:33:05;101515.99;;;24.69;36.89
69239;BME280;56349;51.816;-0.026;2023-10-09T05:35:31;101513.64;;;24.67;36.94
69239;BME280;56349;51.816;-0.026;2023-10-09T05:37:56;101512.10;;;24.87;36.98
69239;BME280;56349;51.816;-0.026;2023-10-09T05:40:21;101516.47;;;24.40;37.02
69239;BME280;56349;51.816;-0.026;2023-10-09T05:42:47;101525.02;;;24.59;37.08
69239;BME280;56349;51.816;-0.026;2023-10-09T05:45:14;101530.55;;;24.35;37.10
69239;BME280;56349;51.816;-0.026;2023-10-09T05:47:38;101537.63;;;24.77;37.13
69239;BME280;56349;51.816;-0.026;2023-10-09T05:50:04;101538.62;;;24.75;37.17
69239;BME280;56349;51.816;-0.026;2023-10-09T05:52:29;101521.32;;;24.74;37.19
69239;BME280;56349;51.816;-0.026;2023-10-09T05:54:54;101514.38;;;24.73;37.18
69239;BME280;56349;51.816;-0.026;2023-10-09T05:57:19;101510.60;;;24.47;37.24
69239;BME280;56349;51.816;-0.026;2023-10-09T05:59:45;101515.08;;;24.66;37.28
69239;BME280;56349;51.816;-0.026;2023-10-09T06:02:10;101522.60;;;24.63;37.32
69239;BME280;56349;51.816;-0.026;2023-10-09T06:04:36;101537.08;;;24.59;37.37
69239;BME280;56349;51.816;-0.026;2023-10-09T06:07:01;101534.78;;;24.35;37.40
69239;BME280;56349;51.816;-0.026;2023-10-09T06:09:26;101543.80;;;24.32;37.43
69239;BME280;56349;51.816;-0.026;2023-10-09T06:11:52;101541.59;;;24.53;37.46
69239;BME280;56349;51.816;-0.026;2023-10-09T06:14:18;101525.16;;;24.52;37.48
69239;BME280;56349;51.816;-0.026;2023-10-09T06:16:43;101518.57;;;24.51;37.48
69239;BME280;56349;51.816;-0.026;2023-10-09T06:19:10;101529.92;;;24.50;37.50
69239;BME280;56349;51.816;-0.026;2023-10-09T06:21:34;101541.57;;;24.47;37.52
69239;BME280;56349;51.816;-0.026;2023-10-09T06:24:00;101533.51;;;24.46;37.53
69239;BME280;56349;51.816;-0.026;2023-10-09T06:26:26;101540.63;;;24.22;37.55
69239;BME280;56349;51.816;-0.026;2023-10-09T06:28:51;101546.40;;;24.41;37.58
69239;BME280;56349;51.816;-0.026;2023-10-09T06:31:17;101568.25;;;24.42;37.59
69239;BME280;56349;51.816;-0.026;2023-10-09T06:33:42;101564.59;;;24.47;37.52
69239;BME280;56349;51.816;-0.026;2023-10-09T06:36:12;101552.30;;;24.50;37.47
69239;BME280;56349;51.816;-0.026;2023-10-09T06:38:34;101530.48;;;24.30;37.44
69239;BME280;56349;51.816;-0.026;2023-10-09T06:40:59;101536.65;;;24.31;37.43
69239;BME280;56349;51.816;-0.026;2023-10-09T06:43:25;101536.55;;;24.56;37.39
69239;BME280;56349;51.816;-0.026;2023-10-09T06:45:51;101533.86;;;24.56;37.39
69239;BME280;56349;51.816;-0.026;2023-10-09T06:48:15;101539.19;;;24.13;37.37
69239;BME280;56349;51.816;-0.026;2023-10-09T06:50:41;101546.45;;;24.37;37.36
69239;BME280;56349;51.816;-0.026;2023-10-09T06:53:06;101553.81;;;24.38;37.35
69239;BME280;56349;51.816;-0.026;2023-10-09T06:55:36;101541.15;;;24.38;37.34
69239;BME280;56349;51.816;-0.026;2023-10-09T06:57:57;101536.71;;;24.60;37.33
69239;BME280;56349;51.816;-0.026;2023-10-09T07:00:22;101532.36;;;24.39;37.32
69239;BME280;56349;51.816;-0.026;2023-10-09T07:02:48;101531.92;;;24.62;37.30
69239;BME280;56349;51.816;-0.026;2023-10-09T07:05:13;101543.04;;;24.62;37.29
69239;BME280;56349;51.816;-0.026;2023-10-09T07:07:39;101548.65;;;24.62;37.28
69239;BME280;56349;51.816;-0.026;2023-10-09T07:10:06;101558.72;;;24.58;37.30
69239;BME280;56349;51.816;-0.026;2023-10-09T07:12:32;101560.82;;;24.53;37.41
69239;BME280;56349;51.816;-0.026;2023-10-09T07:14:55;101555.47;;;24.52;37.54
69239;BME280;56349;51.816;-0.026;2023-10-09T07:17:21;101551.93;;;24.55;37.74
69239;BME280;56349;51.816;-0.026;2023-10-09T07:19:46;101558.30;;;24.21;37.91
69239;BME280;56349;51.816;-0.026;2023-10-09T07:22:13;101570.21;;;24.58;38.20
69239;BME280;56349;51.816;-0.026;2023-10-09T07:24:38;101549.12;;;24.56;37.91
69239;BME280;56349;51.816;-0.026;2023-10-09T07:27:04;101538.74;;;24.81;37.69
69239;BME280;56349;51.816;-0.026;2023-10-09T07:29:29;101547.02;;;25.06;37.42
69239;BME280;56349;51.816;-0.026;2023-10-09T07:31:55;101570.92;;;25.09;37.08
69239;BME280;56349;51.816;-0.026;2023-10-09T07:34:20;101581.18;;;25.33;36.57
69239;BME280;56349;51.816;-0.026;2023-10-09T07:36:46;101586.16;;;25.60;36.26
69239;BME280;56349;51.816;-0.026;2023-10-09T07:39:11;101585.02;;;25.67;35.93
69239;BME280;56349;51.816;-0.026;2023-10-09T07:41:37;101582.58;;;25.93;35.68
69239;BME280;56349;51.816;-0.026;2023-10-09T07:44:02;101577.12;;;26.20;35.10
69239;BME280;56349;51.816;-0.026;2023-10-09T07:46:28;101585.08;;;26.44;34.77
69239;BME280;56349;51.816;-0.026;2023-10-09T07:51:21;101577.86;;;26.46;34.01
69239;BME280;56349;51.816;-0.026;2023-10-09T07:53:46;101580.39;;;26.77;33.56
69239;BME280;56349;51.816;-0.026;2023-10-09T07:56:11;101582.79;;;27.05;33.13
69239;BME280;56349;51.816;-0.026;2023-10-09T07:58:36;101585.89;;;27.07;32.74
69239;BME280;56349;51.816;-0.026;2023-10-09T08:01:02;101595.77;;;27.49;32.45
69239;BME280;56349;51.816;-0.026;2023-10-09T08:03:28;101588.73;;;27.39;32.16
69239;BME280;56349;51.816;-0.026;2023-10-09T08:05:53;101592.67;;;27.51;31.96
69239;BME280;56349;51.816;-0.026;2023-10-09T08:08:19;101600.50;;;27.38;31.75
69239;BME280;56349;51.816;-0.026;2023-10-09T08:10:45;101595.13;;;27.52;31.57
69239;BME280;56349;51.816;-0.026;2023-10-09T08:13:10;101596.10;;;27.67;31.31
69239;BME280;56349;51.816;-0.026;2023-10-09T08:15:36;101596.19;;;27.80;31.09
69239;BME280;56349;51.816;-0.026;2023-10-09T08:18:01;101602.24;;;27.96;30.86
69239;BME280;56349;51.816;-0.026;2023-10-09T08:20:27;101601.50;;;28.12;30.66
69239;BME280;56349;51.816;-0.026;2023-10-09T08:22:54;101600.22;;;27.82;30.47
69239;BME280;56349;51.816;-0.026;2023-10-09T08:25:19;101592.78;;;28.38;30.13
69239;BME280;56349;51.816;-0.026;2023-10-09T08:27:44;101588.14;;;28.48;29.92
69239;BME280;56349;51.816;-0.026;2023-10-09T08:30:10;101580.44;;;28.34;29.76
69239;BME280;56349;51.816;-0.026;2023-10-09T08:32:35;101573.39;;;28.21;29.76
69239;BME280;56349;51.816;-0.026;2023-10-09T08:35:01;101573.22;;;28.22;29.40
69239;BME280;56349;51.816;-0.026;2023-10-09T08:37:26;101581.55;;;28.23;29.45
69239;BME280;56349;51.816;-0.026;2023-10-09T08:39:52;101594.89;;;28.52;29.40
69239;BME280;56349;51.816;-0.026;2023-10-09T08:42:18;101602.52;;;28.62;29.27
69239;BME280;56349;51.816;-0.026;2023-10-09T08:44:43;101598.62;;;28.69;29.25
69239;BME280;56349;51.816;-0.026;2023-10-09T08:47:09;101596.93;;;28.96;29.33
69239;BME280;56349;51.816;-0.026;2023-10-09T08:49:35;101594.59;;;28.55;29.35
69239;BME280;56349;51.816;-0.026;2023-10-09T08:52:01;101602.99;;;28.54;29.39
69239;BME280;56349;51.816;-0.026;2023-10-09T08:54:26;101604.63;;;28.48;29.45
69239;BME280;56349;51.816;-0.026;2023-10-09T08:56:56;101598.08;;;28.53;29.11
69239;BME280;56349;51.816;-0.026;2023-10-09T08:59:19;101594.20;;;28.34;29.40
69239;BME280;56349;51.816;-0.026;2023-10-09T09:01:43;101601.13;;;28.15;29.67
69239;BME280;56349;51.816;-0.026;2023-10-09T09:04:09;101614.55;;;27.83;29.46
69239;BME280;56349;51.816;-0.026;2023-10-09T09:06:38;101617.10;;;27.73;29.50
69239;BME280;56349;51.816;-0.026;2023-10-09T09:09:10;101610.93;;;27.40;29.59
69239;BME280;56349;51.816;-0.026;2023-10-09T09:11:26;101604.68;;;27.53;29.74
69239;BME280;56349;51.816;-0.026;2023-10-09T09:14:00;101603.39;;;27.05;30.04
69239;BME280;56349;51.816;-0.026;2023-10-09T09:16:18;101607.58;;;27.11;30.47
69239;BME280;56349;51.816;-0.026;2023-10-09T09:18:49;101610.69;;;26.98;30.72
69239;BME280;56349;51.816;-0.026;2023-10-09T09:21:17;101609.06;;;26.84;31.01
69239;BME280;56349;51.816;-0.026;2023-10-09T09:23:34;101604.91;;;27.18;31.25
69239;BME280;56349;51.816;-0.026;2023-10-09T09:25:59;101602.92;;;26.84;31.48
69239;BME280;56349;51.816;-0.026;2023-10-09T09:28:25;101605.83;;;26.95;31.67
69239;BME280;56349;51.816;-0.026;2023-10-09T09:30:50;101603.32;;;26.63;31.93
69239;BME280;56349;51.816;-0.026;2023-10-09T09:33:20;101601.35;;;26.53;32.17
69239;BME280;56349;51.816;-0.026;2023-10-09T09:38:06;101593.11;;;26.53;32.54
69239;BME280;56349;51.816;-0.026;2023-10-09T09:40:32;101593.62;;;26.43;32.72
69239;BME280;56349;51.816;-0.026;2023-10-09T09:42:59;101590.77;;;26.39;32.78
69239;BME280;56349;51.816;-0.026;2023-10-09T09:45:23;101596.92;;;26.32;32.95
69239;BME280;56349;51.816;-0.026;2023-10-09T09:47:49;101606.02;;;26.22;33.04
69239;BME280;56349;51.816;-0.026;2023-10-09T09:50:14;101609.91;;;26.11;33.26
69239;BME280;56349;51.816;-0.026;2023-10-09T09:52:39;101602.02;;;26.00;33.41
69239;BME280;56349;51.816;-0.026;2023-10-09T09:55:10;101597.28;;;25.92;33.53
69239;BME280;56349;51.816;-0.026;2023-10-09T09:57:33;101596.68;;;26.06;33.67
69239;BME280;56349;51.816;-0.026;2023-10-09T09:59:57;101600.42;;;26.23;33.83
69239;BME280;56349;51.816;-0.026;2023-10-09T10:02:27;101595.51;;;25.85;33.95
69239;BME280;56349;51.816;-0.026;2023-10-09T10:04:52;101589.10;;;26.02;34.07
69239;BME280;56349;51.816;-0.026;2023-10-09T10:07:14;101591.08;;;25.65;34.21
69239;BME280;56349;51.816;-0.026;2023-10-09T10:09:42;101593.98;;;25.84;34.32
69239;BME280;56349;51.816;-0.026;2023-10-09T10:12:06;101591.05;;;25.76;34.46
69239;BME280;56349;51.816;-0.026;2023-10-09T10:17:03;101580.84;;;25.34;34.65
69239;BME280;56349;51.816;-0.026;2023-10-09T10:19:23;101577.41;;;25.30;34.71
69239;BME280;56349;51.816;-0.026;2023-10-09T10:21:48;101573.28;;;25.52;34.77
69239;BME280;56349;51.816;-0.026;2023-10-09T10:26:39;101573.13;;;25.42;34.91
69239;BME280;56349;51.816;-0.026;2023-10-09T10:34:03;101566.78;;;25.31;35.08
69239;BME280;56349;51.816;-0.026;2023-10-09T10:36:21;101563.12;;;25.28;35.13
69239;BME280;56349;51.816;-0.026;2023-10-09T10:41:13;101563.68;;;25.20;35.23
69239;BME280;56349;51.816;-0.026;2023-10-09T10:43:37;101562.94;;;25.17;35.27
69239;BME280;56349;51.816;-0.026;2023-10-09T10:46:03;101563.63;;;25.14;35.28
69239;BME280;56349;51.816;-0.026;2023-10-09T10:48:34;101569.01;;;25.11;35.32
69239;BME280;56349;51.816;-0.026;2023-10-09T10:50:56;101572.57;;;25.08;35.38
69239;BME280;56349;51.816;-0.026;2023-10-09T10:53:19;101573.47;;;25.06;35.40
69239;BME280;56349;51.816;-0.026;2023-10-09T10:55:55;101578.08;;;25.03;35.42
69239;BME280;56349;51.816;-0.026;2023-10-09T10:58:16;101580.50;;;25.24;35.46
69239;BME280;56349;51.816;-0.026;2023-10-09T11:00:36;101580.30;;;25.00;35.48
69239;BME280;56349;51.816;-0.026;2023-10-09T11:03:02;101581.58;;;24.98;35.56
69239;BME280;56349;51.816;-0.026;2023-10-09T11:05:28;101583.66;;;24.95;35.57
69239;BME280;56349;51.816;-0.026;2023-10-09T11:07:57;101584.76;;;24.92;35.64
69239;BME280;56349;51.816;-0.026;2023-10-09T11:10:22;101581.34;;;25.13;35.68
69239;BME280;56349;51.816;-0.026;2023-10-09T11:12:46;101582.94;;;25.12;35.70
69239;BME280;56349;51.816;-0.026;2023-10-09T11:15:12;101583.76;;;25.31;35.73
69239;BME280;56349;51.816;-0.026;2023-10-09T11:17:36;101584.85;;;25.06;35.78
69239;BME280;56349;51.816;-0.026;2023-10-09T11:20:02;101583.04;;;24.80;35.73
69239;BME280;56349;51.816;-0.026;2023-10-09T11:22:27;101584.24;;;25.21;35.85
69239;BME280;56349;51.816;-0.026;2023-10-09T11:24:53;101581.81;;;25.20;36.04
69239;BME280;56349;51.816;-0.026;2023-10-09T11:27:18;101577.35;;;25.19;36.21
69239;BME280;56349;51.816;-0.026;2023-10-09T11:29:48;101576.29;;;24.95;36.39
69239;BME280;56349;51.816;-0.026;2023-10-09T11:32:15;101578.97;;;24.95;36.56
69239;BME280;56349;51.816;-0.026;2023-10-09T11:34:35;101584.49;;;24.73;36.76
69239;BME280;56349;51.816;-0.026;2023-10-09T11:37:02;101585.57;;;24.73;36.72
69239;BME280;56349;51.816;-0.026;2023-10-09T11:39:28;101585.75;;;24.75;36.81
69239;BME280;56349;51.816;-0.026;2023-10-09T11:44:17;101578.39;;;24.88;36.78
69239;BME280;56349;51.816;-0.026;2023-10-09T11:49:09;101576.32;;;25.25;36.52
69239;BME280;56349;51.816;-0.026;2023-10-09T11:51:33;101576.14;;;25.22;36.29
69239;BME280;56349;51.816;-0.026;2023-10-09T11:53:59;101575.19;;;25.51;36.07
69239;BME280;56349;51.816;-0.026;2023-10-09T11:56:25;101571.08;;;25.82;35.78
69239;BME280;56349;51.816;-0.026;2023-10-09T11:58:50;101565.54;;;25.90;35.47
69239;BME280;56349;51.816;-0.026;2023-10-09T12:01:16;101556.84;;;26.23;35.19
69239;BME280;56349;51.816;-0.026;2023-10-09T12:03:41;101552.60;;;26.55;34.95
69239;BME280;56349;51.816;-0.026;2023-10-09T12:06:07;101549.64;;;26.36;34.65
69239;BME280;56349;51.816;-0.026;2023-10-09T12:08:33;101549.36;;;26.67;34.34
69239;BME280;56349;51.816;-0.026;2023-10-09T12:10:58;101547.22;;;26.96;34.06
69239;BME280;56349;51.816;-0.026;2023-10-09T12:13:24;101547.91;;;27.23;33.79
69239;BME280;56349;51.816;-0.026;2023-10-09T12:15:53;101547.99;;;27.51;33.48
69239;BME280;56349;51.816;-0.026;2023-10-09T12:18:14;101542.80;;;27.27;33.20
69239;BME280;56349;51.816;-0.026;2023-10-09T12:20:40;101542.82;;;27.53;32.92
69239;BME280;56349;51.816;-0.026;2023-10-09T12:23:06;101537.50;;;27.75;32.59
69239;BME280;56349;51.816;-0.026;2023-10-09T12:25:32;101527.49;;;28.24;32.40
69239;BME280;56349;51.816;-0.026;2023-10-09T12:27:57;101523.60;;;27.96;32.13
69239;BME280;56349;51.816;-0.026;2023-10-09T12:30:23;101522.38;;;28.14;31.91
69239;BME280;56349;51.816;-0.026;2023-10-09T12:32:49;101517.59;;;28.30;31.67
69239;BME280;56349;51.816;-0.026;2023-10-09T12:35:15;101510.47;;;28.46;31.47
69239;BME280;56349;51.816;-0.026;2023-10-09T12:37:40;101508.43;;;28.38;31.30
69239;BME280;56349;51.816;-0.026;2023-10-09T12:40:07;101509.25;;;28.50;31.10
69239;BME280;56349;51.816;-0.026;2023-10-09T12:42:31;101501.46;;;28.61;30.95
69239;BME280;56349;51.816;-0.026;2023-10-09T12:44:57;101496.97;;;28.72;30.78
69239;BME280;56349;51.816;-0.026;2023-10-09T12:47:22;101496.04;;;28.86;30.65
69239;BME280;56349;51.816;-0.026;2023-10-09T12:49:48;101493.73;;;28.72;30.47
69239;BME280;56349;51.816;-0.026;2023-10-09T12:52:13;101486.96;;;28.83;30.31